sensor_id;sensor_type;location;lat;lon;timestamp;P1;durP1;ratioP1;P2;durP2;ratioP2
3975;SDS011;2002;48.812;9.180;2023-02-01T00:01:50;1.87;;;1.40;;
3975;SDS011;2002;48.812;9.180;2023-02-01T00:04:16;1.27;;;1.17;;
3975;SDS011;2002;48.812;9.180;2023-02-01T00:06:41;1.20;;;1.10;;
3975;SDS011;2002;48.812;9.180;2023-02-01T00:09:07;1.23;;;1.10;;
3975;SDS011;2002;48.812;9.180;2023-02-01T00:11:33;1.43;;;1.20;;
3975;SDS011;2002;48.812;9.180;2023-02-01T00:13:59;2.33;;;1.30;;
3975;SDS011;2002;48.812;9.180;2023-02-01T00:16:25;1.20;;;0.87;;
3975;SDS011;2002;48.812;9.180;2023-02-01T00:18:56;1.10;;;1.00;;
3975;SDS011;2002;48.812;9.180;2023-02-01T00:21:29;1.37;;;1.17;;
3975;SDS011;2002;48.812;9.180;2023-02-01T00:23:55;1.57;;;1.47;;
3975;SDS011;2002;48.812;9.180;2023-02-01T00:26:43;0.97;;;0.90;;
3975;SDS011;2002;48.812;9.180;2023-02-01T00:29:12;1.10;;;1.00;;
3975;SDS011;2002;48.812;9.180;2023-02-01T00:31:40;1.40;;;1.20;;
3975;SDS011;2002;48.812;9.180;2023-02-01T00:34:05;1.67;;;1.10;;
3975;SDS011;2002;48.812;9.180;2023-02-01T00:36:31;1.07;;;0.97;;
3975;SDS011;2002;48.812;9.180;2023-02-01T00:38:57;1.67;;;1.20;;
3975;SDS011;2002;48.812;9.180;2023-02-01T00:41:23;1.20;;;1.10;;
3975;SDS011;2002;48.812;9.180;2023-02-01T00:43:49;1.30;;;1.20;;
3975;SDS011;2002;48.812;9.180;2023-02-01T00:46:15;1.40;;;1.00;;
3975;SDS011;2002;48.812;9.180;2023-02-01T00:48:43;0.80;;;0.80;;
3975;SDS011;2002;48.812;9.180;2023-02-01T00:51:10;0.97;;;0.87;;
3975;SDS011;2002;48.812;9.180;2023-02-01T00:53:37;2.17;;;1.97;;
3975;SDS011;2002;48.812;9.180;2023-02-01T00:56:03;1.63;;;0.90;;
3975;SDS011;2002;48.812;9.180;2023-02-01T00:58:30;1.30;;;0.93;;
3975;SDS011;2002;48.812;9.180;2023-02-01T01:01:06;1.13;;;1.03;;
3975;SDS011;2002;48.812;9.180;2023-02-01T01:03:41;1.60;;;1.27;;
3975;SDS011;2002;48.812;9.180;2023-02-01T01:06:15;1.03;;;0.93;;
3975;SDS011;2002;48.812;9.180;2023-02-01T01:08:42;1.40;;;1.30;;
3975;SDS011;2002;48.812;9.180;2023-02-01T01:11:10;1.37;;;0.93;;
3975;SDS011;2002;48.812;9.180;2023-02-01T01:13:41;0.90;;;0.80;;
3975;SDS011;2002;48.812;9.180;2023-02-01T01:16:07;1.13;;;0.90;;
3975;SDS011;2002;48.812;9.180;2023-02-01T01:18:34;1.07;;;0.90;;
3975;SDS011;2002;48.812;9.180;2023-02-01T01:21:00;1.23;;;1.13;;
3975;SDS011;2002;48.812;9.180;2023-02-01T01:23:27;1.00;;;0.90;;
3975;SDS011;2002;48.812;9.180;2023-02-01T01:25:52;1.40;;;0.93;;
3975;SDS011;2002;48.812;9.180;2023-02-01T01:28:18;1.07;;;0.97;;
3975;SDS011;2002;48.812;9.180;2023-02-01T01:30:44;1.13;;;0.80;;
3975;SDS011;2002;48.812;9.180;2023-02-01T01:33:10;0.80;;;0.80;;
3975;SDS011;2002;48.812;9.180;2023-02-01T01:35:35;0.83;;;0.80;;
3975;SDS011;2002;48.812;9.180;2023-02-01T01:38:01;1.93;;;1.07;;
3975;SDS011;2002;48.812;9.180;2023-02-01T01:40:28;1.17;;;1.03;;
3975;SDS011;2002;48.812;9.180;2023-02-01T01:42:54;1.17;;;1.07;;
3975;SDS011;2002;48.812;9.180;2023-02-01T01:47:56;0.90;;;0.90;;
3975;SDS011;2002;48.812;9.180;2023-02-01T01:50:25;1.10;;;0.97;;
3975;SDS011;2002;48.812;9.180;2023-02-01T01:52:54;1.27;;;1.17;;
3975;SDS011;2002;48.812;9.180;2023-02-01T01:55:22;1.10;;;0.77;;
3975;SDS011;2002;48.812;9.180;2023-02-01T01:57:53;1.03;;;0.90;;
3975;SDS011;2002;48.812;9.180;2023-02-01T02:00:40;1.27;;;1.17;;
3975;SDS011;2002;48.812;9.180;2023-02-01T02:03:51;1.20;;;1.10;;
3975;SDS011;2002;48.812;9.180;2023-02-01T02:05:57;1.00;;;0.73;;
3975;SDS011;2002;48.812;9.180;2023-02-01T02:08:24;1.10;;;1.00;;
3975;SDS011;2002;48.812;9.180;2023-02-01T02:10:53;1.27;;;1.17;;
3975;SDS011;2002;48.812;9.180;2023-02-01T02:13:25;1.30;;;1.10;;
3975;SDS011;2002;48.812;9.180;2023-02-01T02:27:37;1.00;;;0.87;;
3975;SDS011;2002;48.812;9.180;2023-02-01T02:36:01;0.90;;;0.83;;
3975;SDS011;2002;48.812;9.180;2023-02-01T02:47:47;0.80;;;0.67;;
3975;SDS011;2002;48.812;9.180;2023-02-01T02:53:30;1.10;;;0.90;;
3975;SDS011;2002;48.812;9.180;2023-02-01T02:56:20;1.17;;;1.07;;
3975;SDS011;2002;48.812;9.180;2023-02-01T02:59:07;1.30;;;1.20;;
3975;SDS011;2002;48.812;9.180;2023-02-01T03:01:52;0.80;;;0.77;;
3975;SDS011;2002;48.812;9.180;2023-02-01T03:04:37;1.00;;;0.90;;
3975;SDS011;2002;48.812;9.180;2023-02-01T03:07:14;0.73;;;0.73;;
3975;SDS011;2002;48.812;9.180;2023-02-01T03:09:59;0.80;;;0.60;;
3975;SDS011;2002;48.812;9.180;2023-02-01T03:12:33;1.43;;;1.33;;
3975;SDS011;2002;48.812;9.180;2023-02-01T03:15:20;1.40;;;0.87;;
3975;SDS011;2002;48.812;9.180;2023-02-01T03:18:00;1.33;;;1.23;;
3975;SDS011;2002;48.812;9.180;2023-02-01T03:20:29;1.07;;;0.87;;
3975;SDS011;2002;48.812;9.180;2023-02-01T03:22:56;0.90;;;0.80;;
3975;SDS011;2002;48.812;9.180;2023-02-01T03:25:28;1.03;;;0.93;;
3975;SDS011;2002;48.812;9.180;2023-02-01T03:28:00;1.23;;;1.00;;
3975;SDS011;2002;48.812;9.180;2023-02-01T03:30:36;1.10;;;1.00;;
3975;SDS011;2002;48.812;9.180;2023-02-01T03:33:09;0.77;;;0.77;;
3975;SDS011;2002;48.812;9.180;2023-02-01T03:43:59;0.93;;;0.80;;
3975;SDS011;2002;48.812;9.180;2023-02-01T03:46:35;1.00;;;0.90;;
3975;SDS011;2002;48.812;9.180;2023-02-01T03:49:06;0.83;;;0.67;;
3975;SDS011;2002;48.812;9.180;2023-02-01T03:51:35;0.90;;;0.80;;
3975;SDS011;2002;48.812;9.180;2023-02-01T03:54:06;0.80;;;0.70;;
3975;SDS011;2002;48.812;9.180;2023-02-01T03:56:36;0.80;;;0.80;;
3975;SDS011;2002;48.812;9.180;2023-02-01T03:59:03;0.97;;;0.90;;
3975;SDS011;2002;48.812;9.180;2023-02-01T04:01:29;1.47;;;0.80;;
3975;SDS011;2002;48.812;9.180;2023-02-01T04:03:56;1.20;;;0.70;;
3975;SDS011;2002;48.812;9.180;2023-02-01T04:06:23;1.00;;;0.70;;
3975;SDS011;2002;48.812;9.180;2023-02-01T04:08:49;1.77;;;0.80;;
3975;SDS011;2002;48.812;9.180;2023-02-01T04:11:16;1.63;;;0.87;;
3975;SDS011;2002;48.812;9.180;2023-02-01T04:13:42;0.80;;;0.63;;
3975;SDS011;2002;48.812;9.180;2023-02-01T04:16:08;0.77;;;0.77;;
3975;SDS011;2002;48.812;9.180;2023-02-01T04:18:34;1.00;;;0.87;;
3975;SDS011;2002;48.812;9.180;2023-02-01T04:21:00;0.90;;;0.73;;
3975;SDS011;2002;48.812;9.180;2023-02-01T04:23:27;0.97;;;0.87;;
3975;SDS011;2002;48.812;9.180;2023-02-01T04:25:53;1.00;;;1.00;;
3975;SDS011;2002;48.812;9.180;2023-02-01T04:28:18;0.80;;;0.80;;
3975;SDS011;2002;48.812;9.180;2023-02-01T04:30:45;0.60;;;0.60;;
3975;SDS011;2002;48.812;9.180;2023-02-01T04:33:11;0.70;;;0.70;;
3975;SDS011;2002;48.812;9.180;2023-02-01T04:35:39;1.10;;;0.97;;
3975;SDS011;2002;48.812;9.180;2023-02-01T04:38:05;1.17;;;0.83;;
3975;SDS011;2002;48.812;9.180;2023-02-01T04:40:31;0.90;;;0.80;;
3975;SDS011;2002;48.812;9.180;2023-02-01T04:42:57;1.10;;;1.00;;
3975;SDS011;2002;48.812;9.180;2023-02-01T04:45:23;1.10;;;1.00;;
3975;SDS011;2002;48.812;9.180;2023-02-01T04:47:48;0.90;;;0.70;;
3975;SDS011;2002;48.812;9.180;2023-02-01T04:50:14;1.03;;;0.97;;
3975;SDS011;2002;48.812;9.180;2023-02-01T04:52:40;1.70;;;1.00;;
3975;SDS011;2002;48.812;9.180;2023-02-01T04:55:06;1.30;;;1.00;;
3975;SDS011;2002;48.812;9.180;2023-02-01T04:57:32;1.37;;;0.70;;
3975;SDS011;2002;48.812;9.180;2023-02-01T04:59:57;0.70;;;0.70;;
3975;SDS011;2002;48.812;9.180;2023-02-01T05:02:23;1.60;;;0.83;;
3975;SDS011;2002;48.812;9.180;2023-02-01T05:04:49;1.07;;;0.77;;
3975;SDS011;2002;48.812;9.180;2023-02-01T05:07:15;0.80;;;0.70;;
3975;SDS011;2002;48.812;9.180;2023-02-01T05:09:41;0.67;;;0.60;;
3975;SDS011;2002;48.812;9.180;2023-02-01T05:12:07;0.97;;;0.80;;
3975;SDS011;2002;48.812;9.180;2023-02-01T05:14:52;1.00;;;0.73;;
3975;SDS011;2002;48.812;9.180;2023-02-01T05:17:18;0.90;;;0.80;;
3975;SDS011;2002;48.812;9.180;2023-02-01T05:19:43;0.80;;;0.63;;
3975;SDS011;2002;48.812;9.180;2023-02-01T05:22:09;1.10;;;0.80;;
3975;SDS011;2002;48.812;9.180;2023-02-01T05:24:34;0.80;;;0.60;;
3975;SDS011;2002;48.812;9.180;2023-02-01T05:27:00;1.20;;;0.90;;
3975;SDS011;2002;48.812;9.180;2023-02-01T05:29:26;1.23;;;0.70;;
3975;SDS011;2002;48.812;9.180;2023-02-01T05:31:51;0.70;;;0.67;;
3975;SDS011;2002;48.812;9.180;2023-02-01T05:34:17;1.10;;;1.00;;
3975;SDS011;2002;48.812;9.180;2023-02-01T05:36:42;0.70;;;0.70;;
3975;SDS011;2002;48.812;9.180;2023-02-01T05:39:08;0.93;;;0.77;;
3975;SDS011;2002;48.812;9.180;2023-02-01T05:41:35;0.80;;;0.70;;
3975;SDS011;2002;48.812;9.180;2023-02-01T05:44:01;0.97;;;0.90;;
3975;SDS011;2002;48.812;9.180;2023-02-01T05:46:26;0.97;;;0.87;;
3975;SDS011;2002;48.812;9.180;2023-02-01T05:48:52;1.00;;;0.90;;
3975;SDS011;2002;48.812;9.180;2023-02-01T05:51:17;0.90;;;0.67;;
3975;SDS011;2002;48.812;9.180;2023-02-01T05:53:43;1.20;;;0.73;;
3975;SDS011;2002;48.812;9.180;2023-02-01T05:56:08;0.93;;;0.83;;
3975;SDS011;2002;48.812;9.180;2023-02-01T05:58:34;1.00;;;0.80;;
3975;SDS011;2002;48.812;9.180;2023-02-01T06:01:00;0.60;;;0.57;;
3975;SDS011;2002;48.812;9.180;2023-02-01T06:03:26;1.07;;;0.93;;
3975;SDS011;2002;48.812;9.180;2023-02-01T06:05:52;0.60;;;0.60;;
3975;SDS011;2002;48.812;9.180;2023-02-01T06:08:18;0.70;;;0.70;;
3975;SDS011;2002;48.812;9.180;2023-02-01T06:10:44;0.80;;;0.73;;
3975;SDS011;2002;48.812;9.180;2023-02-01T06:13:09;0.90;;;0.60;;
3975;SDS011;2002;48.812;9.180;2023-02-01T06:15:35;1.60;;;0.90;;
3975;SDS011;2002;48.812;9.180;2023-02-01T06:18:02;1.33;;;0.77;;
3975;SDS011;2002;48.812;9.180;2023-02-01T06:20:28;0.97;;;0.70;;
3975;SDS011;2002;48.812;9.180;2023-02-01T06:22:53;0.50;;;0.50;;
3975;SDS011;2002;48.812;9.180;2023-02-01T06:25:19;0.83;;;0.70;;
3975;SDS011;2002;48.812;9.180;2023-02-01T06:27:46;0.70;;;0.57;;
3975;SDS011;2002;48.812;9.180;2023-02-01T06:30:12;0.80;;;0.70;;
3975;SDS011;2002;48.812;9.180;2023-02-01T06:32:40;1.07;;;0.97;;
3975;SDS011;2002;48.812;9.180;2023-02-01T06:35:09;0.80;;;0.80;;
3975;SDS011;2002;48.812;9.180;2023-02-01T06:37:41;1.10;;;1.00;;
3975;SDS011;2002;48.812;9.180;2023-02-01T06:40:07;0.73;;;0.70;;
3975;SDS011;2002;48.812;9.180;2023-02-01T06:42:33;1.00;;;0.70;;
3975;SDS011;2002;48.812;9.180;2023-02-01T06:44:59;1.00;;;0.90;;
3975;SDS011;2002;48.812;9.180;2023-02-01T06:47:24;0.90;;;0.70;;
3975;SDS011;2002;48.812;9.180;2023-02-01T06:49:50;1.13;;;0.90;;
3975;SDS011;2002;48.812;9.180;2023-02-01T06:52:15;1.70;;;1.60;;
3975;SDS011;2002;48.812;9.180;2023-02-01T06:54:41;0.70;;;0.70;;
3975;SDS011;2002;48.812;9.180;2023-02-01T06:57:06;0.80;;;0.70;;
3975;SDS011;2002;48.812;9.180;2023-02-01T06:59:32;1.07;;;0.80;;
3975;SDS011;2002;48.812;9.180;2023-02-01T07:01:57;1.50;;;0.90;;
3975;SDS011;2002;48.812;9.180;2023-02-01T07:04:23;0.83;;;0.60;;
3975;SDS011;2002;48.812;9.180;2023-02-01T07:06:49;0.90;;;0.90;;
3975;SDS011;2002;48.812;9.180;2023-02-01T07:09:14;1.30;;;0.90;;
3975;SDS011;2002;48.812;9.180;2023-02-01T07:11:40;0.90;;;0.90;;
3975;SDS011;2002;48.812;9.180;2023-02-01T07:14:08;2.00;;;1.03;;
3975;SDS011;2002;48.812;9.180;2023-02-01T07:16:37;0.60;;;0.60;;
3975;SDS011;2002;48.812;9.180;2023-02-01T07:19:02;0.77;;;0.77;;
3975;SDS011;2002;48.812;9.180;2023-02-01T07:21:28;1.07;;;0.90;;
3975;SDS011;2002;48.812;9.180;2023-02-01T07:23:54;0.90;;;0.90;;
3975;SDS011;2002;48.812;9.180;2023-02-01T07:26:20;1.03;;;0.83;;
3975;SDS011;2002;48.812;9.180;2023-02-01T07:28:46;0.80;;;0.63;;
3975;SDS011;2002;48.812;9.180;2023-02-01T07:31:16;0.80;;;0.80;;
3975;SDS011;2002;48.812;9.180;2023-02-01T07:33:44;0.60;;;0.50;;
3975;SDS011;2002;48.812;9.180;2023-02-01T07:36:14;0.93;;;0.67;;
3975;SDS011;2002;48.812;9.180;2023-02-01T07:38:40;0.70;;;0.60;;
3975;SDS011;2002;48.812;9.180;2023-02-01T07:41:07;0.70;;;0.70;;
3975;SDS011;2002;48.812;9.180;2023-02-01T07:43:33;0.67;;;0.67;;
3975;SDS011;2002;48.812;9.180;2023-02-01T07:45:59;1.03;;;0.80;;
3975;SDS011;2002;48.812;9.180;2023-02-01T07:48:26;0.80;;;0.73;;
3975;SDS011;2002;48.812;9.180;2023-02-01T07:51:26;1.10;;;0.87;;
3975;SDS011;2002;48.812;9.180;2023-02-01T07:53:45;0.80;;;0.80;;
3975;SDS011;2002;48.812;9.180;2023-02-01T07:56:12;1.07;;;0.80;;
3975;SDS011;2002;48.812;9.180;2023-02-01T07:58:39;1.10;;;0.50;;
3975;SDS011;2002;48.812;9.180;2023-02-01T08:01:05;0.63;;;0.63;;
3975;SDS011;2002;48.812;9.180;2023-02-01T08:03:53;0.97;;;0.70;;
3975;SDS011;2002;48.812;9.180;2023-02-01T08:06:20;0.90;;;0.70;;
3975;SDS011;2002;48.812;9.180;2023-02-01T08:08:46;0.90;;;0.70;;
3975;SDS011;2002;48.812;9.180;2023-02-01T08:11:13;1.33;;;0.90;;
3975;SDS011;2002;48.812;9.180;2023-02-01T08:13:39;0.83;;;0.83;;
3975;SDS011;2002;48.812;9.180;2023-02-01T08:16:06;0.73;;;0.73;;
3975;SDS011;2002;48.812;9.180;2023-02-01T08:18:33;1.70;;;1.13;;
3975;SDS011;2002;48.812;9.180;2023-02-01T08:21:33;0.80;;;0.80;;
3975;SDS011;2002;48.812;9.180;2023-02-01T08:24:01;1.10;;;1.00;;
3975;SDS011;2002;48.812;9.180;2023-02-01T08:26:28;1.20;;;0.80;;
3975;SDS011;2002;48.812;9.180;2023-02-01T08:28:55;0.77;;;0.70;;
3975;SDS011;2002;48.812;9.180;2023-02-01T08:31:23;2.53;;;0.90;;
3975;SDS011;2002;48.812;9.180;2023-02-01T08:33:52;2.53;;;0.90;;
3975;SDS011;2002;48.812;9.180;2023-02-01T08:36:22;1.00;;;0.87;;
3975;SDS011;2002;48.812;9.180;2023-02-01T08:38:48;1.00;;;0.77;;
3975;SDS011;2002;48.812;9.180;2023-02-01T08:41:18;0.80;;;0.80;;
3975;SDS011;2002;48.812;9.180;2023-02-01T08:43:46;1.20;;;0.80;;
3975;SDS011;2002;48.812;9.180;2023-02-01T08:46:12;1.80;;;0.83;;
3975;SDS011;2002;48.812;9.180;2023-02-01T08:48:38;1.00;;;1.00;;
3975;SDS011;2002;48.812;9.180;2023-02-01T08:51:05;1.00;;;0.90;;
3975;SDS011;2002;48.812;9.180;2023-02-01T08:53:36;0.80;;;0.60;;
3975;SDS011;2002;48.812;9.180;2023-02-01T08:56:03;1.10;;;0.70;;
3975;SDS011;2002;48.812;9.180;2023-02-01T08:58:28;1.00;;;0.80;;
3975;SDS011;2002;48.812;9.180;2023-02-01T09:00:54;0.80;;;0.60;;
3975;SDS011;2002;48.812;9.180;2023-02-01T09:03:20;0.80;;;0.73;;
3975;SDS011;2002;48.812;9.180;2023-02-01T09:05:46;1.70;;;0.83;;
3975;SDS011;2002;48.812;9.180;2023-02-01T09:08:12;1.10;;;0.80;;
3975;SDS011;2002;48.812;9.180;2023-02-01T09:10:40;1.97;;;0.80;;
3975;SDS011;2002;48.812;9.180;2023-02-01T09:13:06;1.10;;;0.70;;
3975;SDS011;2002;48.812;9.180;2023-02-01T09:15:33;1.20;;;0.70;;
3975;SDS011;2002;48.812;9.180;2023-02-01T09:17:58;0.90;;;0.77;;
3975;SDS011;2002;48.812;9.180;2023-02-01T09:20:24;1.33;;;1.00;;
3975;SDS011;2002;48.812;9.180;2023-02-01T09:22:50;1.03;;;0.80;;
3975;SDS011;2002;48.812;9.180;2023-02-01T09:25:17;1.80;;;1.00;;
3975;SDS011;2002;48.812;9.180;2023-02-01T09:27:42;1.00;;;0.90;;
3975;SDS011;2002;48.812;9.180;2023-02-01T09:30:08;1.47;;;0.90;;
3975;SDS011;2002;48.812;9.180;2023-02-01T09:32:35;1.00;;;0.87;;
3975;SDS011;2002;48.812;9.180;2023-02-01T09:35:00;0.90;;;0.80;;
3975;SDS011;2002;48.812;9.180;2023-02-01T09:37:26;1.20;;;0.83;;
3975;SDS011;2002;48.812;9.180;2023-02-01T09:39:52;0.80;;;0.67;;
3975;SDS011;2002;48.812;9.180;2023-02-01T09:47:53;0.93;;;0.83;;
3975;SDS011;2002;48.812;9.180;2023-02-01T09:50:33;1.00;;;0.90;;
3975;SDS011;2002;48.812;9.180;2023-02-01T09:55:39;1.23;;;0.80;;
3975;SDS011;2002;48.812;9.180;2023-02-01T10:00:39;1.30;;;0.73;;
3975;SDS011;2002;48.812;9.180;2023-02-01T10:03:11;1.20;;;0.93;;
3975;SDS011;2002;48.812;9.180;2023-02-01T10:08:57;1.10;;;1.00;;
3975;SDS011;2002;48.812;9.180;2023-02-01T10:16:55;1.10;;;0.87;;
3975;SDS011;2002;48.812;9.180;2023-02-01T10:27:36;1.23;;;0.90;;
3975;SDS011;2002;48.812;9.180;2023-02-01T10:30:06;1.83;;;1.00;;
3975;SDS011;2002;48.812;9.180;2023-02-01T10:32:42;1.47;;;0.80;;
3975;SDS011;2002;48.812;9.180;2023-02-01T10:35:18;1.60;;;1.00;;
3975;SDS011;2002;48.812;9.180;2023-02-01T10:37:51;2.63;;;1.10;;
3975;SDS011;2002;48.812;9.180;2023-02-01T10:40:19;1.40;;;1.00;;
3975;SDS011;2002;48.812;9.180;2023-02-01T10:42:52;1.10;;;0.80;;
3975;SDS011;2002;48.812;9.180;2023-02-01T10:45:20;1.50;;;1.00;;
3975;SDS011;2002;48.812;9.180;2023-02-01T10:47:48;1.57;;;1.00;;
3975;SDS011;2002;48.812;9.180;2023-02-01T10:50:35;1.47;;;0.87;;
3975;SDS011;2002;48.812;9.180;2023-02-01T10:53:12;1.33;;;0.90;;
3975;SDS011;2002;48.812;9.180;2023-02-01T11:00:53;1.20;;;0.87;;
3975;SDS011;2002;48.812;9.180;2023-02-01T11:06:03;1.00;;;0.90;;
3975;SDS011;2002;48.812;9.180;2023-02-01T11:08:41;1.87;;;0.90;;
3975;SDS011;2002;48.812;9.180;2023-02-01T11:11:12;1.57;;;1.10;;
3975;SDS011;2002;48.812;9.180;2023-02-01T11:13:38;1.37;;;1.10;;
3975;SDS011;2002;48.812;9.180;2023-02-01T11:16:05;1.67;;;1.07;;
3975;SDS011;2002;48.812;9.180;2023-02-01T11:18:35;1.67;;;0.90;;
3975;SDS011;2002;48.812;9.180;2023-02-01T11:21:02;1.83;;;1.07;;
3975;SDS011;2002;48.812;9.180;2023-02-01T11:23:29;1.17;;;1.03;;
3975;SDS011;2002;48.812;9.180;2023-02-01T11:26:02;1.10;;;0.80;;
3975;SDS011;2002;48.812;9.180;2023-02-01T11:28:56;2.20;;;1.13;;
3975;SDS011;2002;48.812;9.180;2023-02-01T11:31:43;1.70;;;1.00;;
3975;SDS011;2002;48.812;9.180;2023-02-01T11:34:20;2.83;;;1.00;;
3975;SDS011;2002;48.812;9.180;2023-02-01T11:36:49;1.60;;;1.10;;
3975;SDS011;2002;48.812;9.180;2023-02-01T11:39:23;1.40;;;1.17;;
3975;SDS011;2002;48.812;9.180;2023-02-01T11:44:38;1.53;;;0.90;;
3975;SDS011;2002;48.812;9.180;2023-02-01T11:50:01;1.80;;;1.20;;
3975;SDS011;2002;48.812;9.180;2023-02-01T11:58:18;1.97;;;1.10;;
3975;SDS011;2002;48.812;9.180;2023-02-01T12:01:19;2.10;;;1.17;;
3975;SDS011;2002;48.812;9.180;2023-02-01T12:06:56;1.30;;;1.20;;
3975;SDS011;2002;48.812;9.180;2023-02-01T12:13:16;1.27;;;0.73;;
3975;SDS011;2002;48.812;9.180;2023-02-01T12:18:44;2.60;;;1.23;;
3975;SDS011;2002;48.812;9.180;2023-02-01T12:37:51;1.93;;;1.37;;
3975;SDS011;2002;48.812;9.180;2023-02-01T12:43:19;1.50;;;1.20;;
3975;SDS011;2002;48.812;9.180;2023-02-01T12:45:58;1.87;;;1.10;;
3975;SDS011;2002;48.812;9.180;2023-02-01T12:51:22;2.37;;;1.17;;
3975;SDS011;2002;48.812;9.180;2023-02-01T12:56:53;0.80;;;0.80;;
3975;SDS011;2002;48.812;9.180;2023-02-01T12:59:30;2.00;;;1.03;;
3975;SDS011;2002;48.812;9.180;2023-02-01T13:04:53;4.07;;;0.90;;
3975;SDS011;2002;48.812;9.180;2023-02-01T13:08:04;3.37;;;1.13;;
3975;SDS011;2002;48.812;9.180;2023-02-01T13:10:46;1.83;;;1.10;;
3975;SDS011;2002;48.812;9.180;2023-02-01T13:15:49;3.03;;;1.00;;
3975;SDS011;2002;48.812;9.180;2023-02-01T13:18:41;1.70;;;1.03;;
3975;SDS011;2002;48.812;9.180;2023-02-01T13:21:14;1.47;;;0.83;;
3975;SDS011;2002;48.812;9.180;2023-02-01T13:23:45;2.20;;;1.70;;
3975;SDS011;2002;48.812;9.180;2023-02-01T13:26:13;2.00;;;1.47;;
3975;SDS011;2002;48.812;9.180;2023-02-01T13:42:23;5.10;;;1.93;;
3975;SDS011;2002;48.812;9.180;2023-02-01T13:45:05;3.77;;;1.53;;
3975;SDS011;2002;48.812;9.180;2023-02-01T13:47:45;3.97;;;1.63;;
3975;SDS011;2002;48.812;9.180;2023-02-01T13:53:03;1.50;;;1.40;;
3975;SDS011;2002;48.812;9.180;2023-02-01T13:55:39;2.97;;;1.60;;
3975;SDS011;2002;48.812;9.180;2023-02-01T13:58:14;3.80;;;1.50;;
3975;SDS011;2002;48.812;9.180;2023-02-01T14:00:45;1.93;;;1.53;;
3975;SDS011;2002;48.812;9.180;2023-02-01T14:03:22;3.03;;;1.60;;
3975;SDS011;2002;48.812;9.180;2023-02-01T14:06:16;3.17;;;1.70;;
3975;SDS011;2002;48.812;9.180;2023-02-01T14:11:38;2.20;;;1.10;;
3975;SDS011;2002;48.812;9.180;2023-02-01T14:19:22;4.40;;;1.53;;
3975;SDS011;2002;48.812;9.180;2023-02-01T14:24:24;2.80;;;1.77;;
3975;SDS011;2002;48.812;9.180;2023-02-01T14:26:51;3.00;;;1.73;;
3975;SDS011;2002;48.812;9.180;2023-02-01T14:29:31;1.87;;;1.10;;
3975;SDS011;2002;48.812;9.180;2023-02-01T14:34:56;3.17;;;1.67;;
3975;SDS011;2002;48.812;9.180;2023-02-01T14:40:03;4.47;;;1.63;;
3975;SDS011;2002;48.812;9.180;2023-02-01T14:47:44;2.60;;;1.30;;
3975;SDS011;2002;48.812;9.180;2023-02-01T14:50:29;2.80;;;1.30;;
3975;SDS011;2002;48.812;9.180;2023-02-01T14:55:47;3.33;;;1.33;;
3975;SDS011;2002;48.812;9.180;2023-02-01T15:06:47;4.13;;;1.60;;
3975;SDS011;2002;48.812;9.180;2023-02-01T15:09:36;2.70;;;1.90;;
3975;SDS011;2002;48.812;9.180;2023-02-01T15:14:37;5.70;;;2.13;;
3975;SDS011;2002;48.812;9.180;2023-02-01T15:17:27;5.77;;;2.00;;
3975;SDS011;2002;48.812;9.180;2023-02-01T15:22:29;7.57;;;1.77;;
3975;SDS011;2002;48.812;9.180;2023-02-01T15:24:59;7.17;;;2.97;;
3975;SDS011;2002;48.812;9.180;2023-02-01T15:27:25;6.60;;;2.33;;
3975;SDS011;2002;48.812;9.180;2023-02-01T15:29:52;3.37;;;3.00;;
3975;SDS011;2002;48.812;9.180;2023-02-01T15:32:28;7.80;;;1.60;;
3975;SDS011;2002;48.812;9.180;2023-02-01T15:34:56;3.77;;;1.70;;
3975;SDS011;2002;48.812;9.180;2023-02-01T15:37:22;7.27;;;1.73;;
3975;SDS011;2002;48.812;9.180;2023-02-01T15:42:47;3.47;;;1.60;;
3975;SDS011;2002;48.812;9.180;2023-02-01T15:45:20;6.37;;;2.03;;
3975;SDS011;2002;48.812;9.180;2023-02-01T15:47:48;3.20;;;1.60;;
3975;SDS011;2002;48.812;9.180;2023-02-01T15:50:17;4.27;;;1.67;;
3975;SDS011;2002;48.812;9.180;2023-02-01T15:52:45;1.83;;;1.40;;
3975;SDS011;2002;48.812;9.180;2023-02-01T15:57:57;5.87;;;2.17;;
3975;SDS011;2002;48.812;9.180;2023-02-01T16:00:24;4.43;;;2.03;;
3975;SDS011;2002;48.812;9.180;2023-02-01T16:05:38;4.47;;;2.03;;
3975;SDS011;2002;48.812;9.180;2023-02-01T16:08:14;5.50;;;2.27;;
3975;SDS011;2002;48.812;9.180;2023-02-01T16:10:48;6.23;;;1.80;;
3975;SDS011;2002;48.812;9.180;2023-02-01T16:13:16;5.13;;;1.83;;
3975;SDS011;2002;48.812;9.180;2023-02-01T16:15:43;2.77;;;1.50;;
3975;SDS011;2002;48.812;9.180;2023-02-01T16:18:09;4.60;;;2.17;;
3975;SDS011;2002;48.812;9.180;2023-02-01T16:20:36;2.80;;;1.50;;
3975;SDS011;2002;48.812;9.180;2023-02-01T16:23:04;4.13;;;1.70;;
3975;SDS011;2002;48.812;9.180;2023-02-01T16:25:30;3.87;;;2.00;;
3975;SDS011;2002;48.812;9.180;2023-02-01T16:27:56;5.50;;;1.90;;
3975;SDS011;2002;48.812;9.180;2023-02-01T16:30:22;5.17;;;2.90;;
3975;SDS011;2002;48.812;9.180;2023-02-01T16:32:51;6.63;;;2.17;;
3975;SDS011;2002;48.812;9.180;2023-02-01T16:35:23;4.73;;;1.97;;
3975;SDS011;2002;48.812;9.180;2023-02-01T16:37:53;1.93;;;1.30;;
3975;SDS011;2002;48.812;9.180;2023-02-01T16:40:19;2.93;;;1.63;;
3975;SDS011;2002;48.812;9.180;2023-02-01T16:42:47;7.60;;;2.80;;
3975;SDS011;2002;48.812;9.180;2023-02-01T16:45:15;6.43;;;1.93;;
3975;SDS011;2002;48.812;9.180;2023-02-01T16:47:42;2.97;;;1.47;;
3975;SDS011;2002;48.812;9.180;2023-02-01T16:50:20;3.97;;;1.50;;
3975;SDS011;2002;48.812;9.180;2023-02-01T16:52:47;1.90;;;1.43;;
3975;SDS011;2002;48.812;9.180;2023-02-01T16:55:17;3.20;;;1.70;;
3975;SDS011;2002;48.812;9.180;2023-02-01T16:57:44;4.53;;;1.83;;
3975;SDS011;2002;48.812;9.180;2023-02-01T17:00:10;4.07;;;1.90;;
3975;SDS011;2002;48.812;9.180;2023-02-01T17:02:37;5.00;;;1.73;;
3975;SDS011;2002;48.812;9.180;2023-02-01T17:05:03;4.80;;;1.50;;
3975;SDS011;2002;48.812;9.180;2023-02-01T17:07:29;2.87;;;1.70;;
3975;SDS011;2002;48.812;9.180;2023-02-01T17:09:55;2.37;;;1.27;;
3975;SDS011;2002;48.812;9.180;2023-02-01T17:14:49;3.40;;;1.63;;
3975;SDS011;2002;48.812;9.180;2023-02-01T17:17:15;3.00;;;1.60;;
3975;SDS011;2002;48.812;9.180;2023-02-01T17:19:41;2.70;;;1.90;;
3975;SDS011;2002;48.812;9.180;2023-02-01T17:22:09;2.57;;;1.40;;
3975;SDS011;2002;48.812;9.180;2023-02-01T17:24:35;4.47;;;1.80;;
3975;SDS011;2002;48.812;9.180;2023-02-01T17:27:00;3.80;;;1.73;;
3975;SDS011;2002;48.812;9.180;2023-02-01T17:29:28;2.60;;;1.50;;
3975;SDS011;2002;48.812;9.180;2023-02-01T17:31:54;2.20;;;1.50;;
3975;SDS011;2002;48.812;9.180;2023-02-01T17:34:20;2.13;;;1.30;;
3975;SDS011;2002;48.812;9.180;2023-02-01T17:36:47;3.10;;;1.47;;
3975;SDS011;2002;48.812;9.180;2023-02-01T17:39:15;4.23;;;2.07;;
3975;SDS011;2002;48.812;9.180;2023-02-01T17:42:00;2.97;;;1.77;;
3975;SDS011;2002;48.812;9.180;2023-02-01T17:44:27;4.03;;;1.47;;
3975;SDS011;2002;48.812;9.180;2023-02-01T17:46:53;2.50;;;1.70;;
3975;SDS011;2002;48.812;9.180;2023-02-01T17:49:21;3.47;;;1.77;;
3975;SDS011;2002;48.812;9.180;2023-02-01T17:51:47;3.93;;;1.70;;
3975;SDS011;2002;48.812;9.180;2023-02-01T17:54:14;2.00;;;1.30;;
3975;SDS011;2002;48.812;9.180;2023-02-01T17:56:41;4.90;;;1.90;;
3975;SDS011;2002;48.812;9.180;2023-02-01T17:59:07;2.10;;;1.03;;
3975;SDS011;2002;48.812;9.180;2023-02-01T18:01:33;3.43;;;1.50;;
3975;SDS011;2002;48.812;9.180;2023-02-01T18:03:59;2.47;;;1.20;;
3975;SDS011;2002;48.812;9.180;2023-02-01T18:06:25;2.60;;;2.37;;
3975;SDS011;2002;48.812;9.180;2023-02-01T18:08:51;3.50;;;1.83;;
3975;SDS011;2002;48.812;9.180;2023-02-01T18:11:22;4.13;;;2.03;;
3975;SDS011;2002;48.812;9.180;2023-02-01T18:13:49;3.37;;;1.20;;
3975;SDS011;2002;48.812;9.180;2023-02-01T18:16:18;2.30;;;1.47;;
3975;SDS011;2002;48.812;9.180;2023-02-01T18:18:49;2.17;;;1.93;;
3975;SDS011;2002;48.812;9.180;2023-02-01T18:21:15;3.83;;;1.60;;
3975;SDS011;2002;48.812;9.180;2023-02-01T18:23:42;3.33;;;1.50;;
3975;SDS011;2002;48.812;9.180;2023-02-01T18:26:12;3.20;;;1.27;;
3975;SDS011;2002;48.812;9.180;2023-02-01T18:28:42;2.70;;;1.40;;
3975;SDS011;2002;48.812;9.180;2023-02-01T18:33:51;2.87;;;1.23;;
3975;SDS011;2002;48.812;9.180;2023-02-01T18:36:18;2.30;;;1.13;;
3975;SDS011;2002;48.812;9.180;2023-02-01T18:38:44;2.87;;;1.23;;
3975;SDS011;2002;48.812;9.180;2023-02-01T18:41:13;2.40;;;1.23;;
3975;SDS011;2002;48.812;9.180;2023-02-01T18:43:40;2.00;;;1.47;;
3975;SDS011;2002;48.812;9.180;2023-02-01T18:46:07;3.20;;;1.30;;